Time;durP1;ratioP1;P1;durP2;ratioP2;P2;SDS_P1;SDS_P2;PMS_P1;PMS_P2;Temp;Humidity;BMP_temperature;BMP_pressure;BME280_temperature;BME280_humidity;BME280_pressure;Samples;Min_cycle;Max_cycle;Signal;HPM_P1;HPM_P2
2022/05/13 00:02:09;;;;;;;7.23;2.57;;;;;;;9.55;100.00;96699.34;10414886;28;20596;-54
2022/05/13 00:07:10;;;;;;;2.93;1.90;;;;;;;9.68;100.00;96706.78;10414336;28;20250;-58
2022/05/13 00:12:11;;;;;;;5.20;2.30;;;;;;;9.62;100.00;96713.47;10412633;28;20550;-55
2022/05/13 00:17:11;;;;;;;3.80;2.47;;;;;;;9.57;100.00;96710.47;10413862;28;20266;-52
2022/05/13 00:22:12;;;;;;;4.33;2.30;;;;;;;9.53;100.00;96702.13;10413929;28;20270;-57
2022/05/13 00:27:13;;;;;;;2.53;2.17;;;;;;;9.56;100.00;96699.19;10413996;28;20184;-51
2022/05/13 00:32:13;;;;;;;2.60;2.20;;;;;;;9.33;100.00;96704.06;10395229;28;20205;-54
2022/05/13 00:37:14;;;;;;;4.57;2.43;;;;;;;9.28;100.00;96706.31;10413486;28;20717;-51
2022/05/13 00:42:14;;;;;;;7.63;2.40;;;;;;;9.31;100.00;96700.78;10413009;28;20240;-54
2022/05/13 00:47:15;;;;;;;4.53;2.00;;;;;;;9.42;100.00;96700.53;10413091;28;20212;-52
2022/05/13 00:52:15;;;;;;;5.17;2.10;;;;;;;9.57;100.00;96682.53;10412980;28;20208;-52
2022/05/13 00:57:17;;;;;;;9.23;2.50;;;;;;;9.43;100.00;96680.44;10412385;28;20586;-51
2022/05/13 01:02:17;;;;;;;5.30;2.03;;;;;;;9.24;100.00;96691.88;10394589;28;20220;-52
2022/05/13 01:07:19;;;;;;;4.27;2.40;;;;;;;9.21;100.00;96681.72;10411905;28;20595;-52
2022/05/13 01:12:22;;;;;;;8.43;2.00;;;;;;;9.35;100.00;96685.59;10394665;28;20572;-55
2022/05/13 01:22:53;;;;;;;3.43;2.27;;;;;;;9.63;100.00;96681.94;10411765;28;20216;-57
2022/05/13 01:27:56;;;;;;;2.80;1.73;;;;;;;9.63;100.00;96686.31;10410854;28;20275;-57
2022/05/13 01:32:57;;;;;;;5.77;1.90;;;;;;;9.81;100.00;96687.13;10410838;28;20213;-56
2022/05/13 01:37:57;;;;;;;2.53;2.03;;;;;;;9.96;100.00;96684.78;10410726;28;20730;-54
2022/05/13 01:42:57;;;;;;;6.10;2.03;;;;;;;10.00;100.00;96673.03;10409271;28;20323;-53
2022/05/13 01:47:58;;;;;;;2.70;1.90;;;;;;;9.91;100.00;96676.59;10410696;28;20188;-55
2022/05/13 01:52:58;;;;;;;2.17;1.97;;;;;;;10.05;100.00;96677.00;10407592;28;20218;-56
2022/05/13 01:57:58;;;;;;;5.93;2.00;;;;;;;10.12;100.00;96668.38;10407849;28;20242;-58
2022/05/13 02:08:18;;;;;;;7.90;2.80;;;;;;;10.08;100.00;96667.03;10410549;28;20573;-56
2022/05/13 02:13:18;;;;;;;4.13;2.07;;;;;;;10.16;100.00;96666.25;10410230;28;20213;-56
2022/05/13 02:18:19;;;;;;;3.40;2.00;;;;;;;10.23;100.00;96658.59;10410467;28;20625;-59
2022/05/13 02:23:22;;;;;;;7.03;2.73;;;;;;;10.43;100.00;96646.97;10410145;28;20223;-52
2022/05/13 02:28:23;;;;;;;8.40;2.50;;;;;;;10.52;100.00;96650.41;10410227;28;20275;-52
2022/05/13 02:33:24;;;;;;;7.57;2.20;;;;;;;10.75;100.00;96642.81;10410196;28;20227;-54
2022/05/13 02:38:25;;;;;;;7.10;2.63;;;;;;;10.90;100.00;96640.38;10409702;28;20224;-53
2022/05/13 02:43:26;;;;;;;6.07;2.20;;;;;;;11.01;100.00;96628.78;10470964;23;20239;-58
2022/05/13 02:48:26;;;;;;;5.97;1.97;;;;;;;11.14;100.00;96633.56;10450818;28;20305;-58
2022/05/13 02:53:26;;;;;;;3.70;2.30;;;;;;;11.15;100.00;96633.41;10454798;28;20425;-55
2022/05/13 02:58:27;;;;;;;3.37;2.20;;;;;;;11.07;100.00;96626.34;10458246;28;20713;-58
2022/05/13 03:03:28;;;;;;;7.60;2.40;;;;;;;11.13;100.00;96630.09;10448014;28;20216;-57
2022/05/13 03:08:28;;;;;;;3.83;2.00;;;;;;;11.21;100.00;96624.09;10417358;28;20184;-55
2022/05/13 03:13:28;;;;;;;6.60;2.23;;;;;;;11.34;100.00;96624.41;10416763;28;20208;-53
2022/05/13 03:18:29;;;;;;;7.33;2.00;;;;;;;11.46;100.00;96618.84;10416876;28;20315;-57
2022/05/13 03:23:29;;;;;;;5.87;2.20;;;;;;;11.62;100.00;96618.00;10416374;28;20209;-58
2022/05/13 03:28:30;;;;;;;5.20;2.10;;;;;;;11.56;100.00;96609.81;10416327;28;20276;-54
2022/05/13 03:33:30;;;;;;;5.30;2.00;;;;;;;11.73;99.59;96617.66;10416346;28;20216;-53
2022/05/13 03:38:31;;;;;;;4.93;2.17;;;;;;;11.71;98.89;96617.81;10415688;28;20220;-55
2022/05/13 03:43:31;;;;;;;7.93;2.33;;;;;;;11.58;99.73;96618.34;10415840;28;20240;-53
2022/05/13 03:48:32;;;;;;;6.20;2.50;;;;;;;11.54;100.00;96619.63;10415394;28;20189;-57
2022/05/13 03:53:33;;;;;;;4.87;2.33;;;;;;;11.49;100.00;96619.31;10415606;28;20208;-54
2022/05/13 03:58:34;;;;;;;2.10;1.90;;;;;;;11.58;100.00;96607.03;10414662;28;20711;-54
2022/05/13 04:03:34;;;;;;;4.33;2.27;;;;;;;11.64;100.00;96621.28;10414219;28;20208;-58
2022/05/13 04:19:13;;;;;;;5.13;2.87;;;;;;;11.84;99.59;96608.63;10414796;28;20220;-59
2022/05/13 04:24:16;;;;;;;3.60;2.00;;;;;;;11.85;100.00;96623.38;10414267;28;20691;-59
2022/05/13 04:29:17;;;;;;;4.60;2.35;;;;;;;11.99;99.24;96614.88;10414473;28;20187;-59
2022/05/13 04:34:17;;;;;;;8.00;2.70;;;;;;;12.29;96.94;96615.09;10413692;28;20208;-58
2022/05/13 04:39:17;;;;;;;7.13;2.00;;;;;;;12.56;93.80;96610.41;10413537;28;20703;-58
2022/05/13 04:44:18;;;;;;;6.43;2.17;;;;;;;12.67;92.45;96620.53;10413547;28;20813;-58
2022/05/13 04:49:19;;;;;;;4.53;2.10;;;;;;;12.65;91.32;96625.16;10413131;28;20195;-59
2022/05/13 04:54:19;;;;;;;5.13;2.28;;;;;;;12.74;90.86;96623.28;10413298;28;20654;-60
2022/05/13 04:59:19;;;;;;;5.45;2.08;;;;;;;12.91;90.20;96624.00;10412099;28;20227;-57
2022/05/13 05:04:20;;;;;;;3.28;2.05;;;;;;;13.17;90.88;96634.22;10412678;28;20208;-58
2022/05/13 05:09:20;;;;;;;4.75;2.20;;;;;;;13.39;88.73;96614.19;10412489;28;20185;-56
2022/05/13 05:14:20;;;;;;;4.65;1.50;;;;;;;13.46;85.39;96611.66;10412229;28;20199;-58
2022/05/13 05:19:21;;;;;;;6.82;2.03;;;;;;;13.51;86.53;96628.56;10412360;28;20994;-57
2022/05/13 05:24:21;;;;;;;8.65;2.33;;;;;;;14.01;85.59;96631.59;10412030;28;20201;-54
2022/05/13 05:29:22;;;;;;;5.72;1.92;;;;;;;14.41;84.16;96626.03;10411920;28;20184;-58
2022/05/13 05:34:22;;;;;;;4.85;2.10;;;;;;;14.80;80.61;96603.84;10411752;28;20561;-53
2022/05/13 05:39:22;;;;;;;4.45;1.88;;;;;;;14.87;80.14;96609.16;10411439;28;20232;-54
2022/05/13 05:44:23;;;;;;;6.20;1.75;;;;;;;15.30;76.86;96591.56;10411324;28;20258;-58
2022/05/13 05:49:23;;;;;;;4.43;1.60;;;;;;;15.28;74.44;96571.63;10411198;28;20192;-53
2022/05/13 05:59:43;;;;;;;7.07;1.90;;;;;;;15.63;73.59;96580.44;10410548;28;20224;-55
2022/05/13 06:04:44;;;;;;;7.05;2.15;;;;;;;15.92;72.24;96565.44;10412190;28;20201;-57
2022/05/13 06:09:45;;;;;;;7.35;1.83;;;;;;;15.74;71.93;96557.16;10434212;28;20224;-55
2022/05/13 06:14:45;;;;;;;3.55;1.80;;;;;;;16.29;70.56;96566.03;10415774;28;20201;-55
2022/05/13 06:19:45;;;;;;;5.32;1.90;;;;;;;15.85;70.36;96554.84;10415419;28;20251;-56
2022/05/13 06:24:46;;;;;;;5.13;1.88;;;;;;;16.07;71.12;96586.47;10452288;28;20251;-58
2022/05/13 06:29:47;;;;;;;6.00;1.95;;;;;;;16.68;66.99;96530.19;10457559;28;20227;-57
2022/05/13 06:34:47;;;;;;;3.53;1.40;;;;;;;17.74;62.68;96485.44;10459847;28;20199;-59
2022/05/13 06:39:47;;;;;;;5.68;1.50;;;;;;;18.69;58.01;96421.19;10459082;28;20261;-58
2022/05/13 06:44:48;;;;;;;6.03;1.40;;;;;;;17.64;57.33;96415.16;10459969;28;20188;-58
2022/05/13 06:49:48;;;;;;;6.93;1.35;;;;;;;17.67;58.21;96451.00;10459087;28;20215;-59
2022/05/13 06:54:48;;;;;;;3.67;1.50;;;;;;;17.04;57.03;96401.22;10459172;28;20192;-53
2022/05/13 06:59:49;;;;;;;7.70;1.50;;;;;;;19.00;55.90;96427.53;10449909;28;20235;-54
2022/05/13 07:04:50;;;;;;;4.85;1.27;;;;;;;19.98;51.12;96334.75;10455818;28;20219;-59
2022/05/13 07:09:50;;;;;;;5.95;1.50;;;;;;;18.67;54.06;96397.53;10457398;28;20200;-56
2022/05/13 07:14:51;;;;;;;3.20;1.58;;;;;;;19.23;55.26;96448.97;10456578;28;20302;-59
2022/05/13 07:19:51;;;;;;;2.28;1.23;;;;;;;18.93;55.38;96458.59;10456745;28;20974;-56
2022/05/13 07:24:51;;;;;;;4.43;1.98;;;;;;;18.94;54.70;96441.66;10456618;28;20196;-56
2022/05/13 07:29:52;;;;;;;5.95;1.60;;;;;;;17.82;57.05;96470.16;10456266;28;20220;-54
2022/05/13 07:34:52;;;;;;;10.05;1.73;;;;;;;17.44;58.57;96505.25;10454894;28;20203;-56
2022/05/13 07:45:11;;;;;;;6.25;2.05;;;;;;;18.89;56.62;96493.53;10455230;28;20664;-56
2022/05/13 07:50:14;;;;;;;6.30;1.83;;;;;;;19.19;56.26;96495.59;10451072;28;20246;-59
2022/05/13 07:55:15;;;;;;;4.93;1.80;;;;;;;20.67;51.78;96426.50;10455345;28;20192;-59
2022/05/13 08:00:26;;;;;;;6.70;1.70;;;;;;;20.81;50.53;96397.81;10454570;28;20254;-59
2022/05/13 08:05:29;;;;;;;5.05;1.50;;;;;;;20.65;49.91;96385.97;10454059;28;20231;-59
2022/05/13 08:10:30;;;;;;;7.30;1.50;;;;;;;21.54;47.40;96334.44;10444136;28;20204;-54
2022/05/13 08:15:30;;;;;;;11.18;1.92;;;;;;;20.69;48.60;96365.03;10431195;28;20620;-60
2022/05/13 08:20:31;;;;;;;6.22;1.75;;;;;;;19.53;49.99;96352.63;10432340;28;20714;-60
2022/05/13 08:25:31;;;;;;;4.93;1.70;;;;;;;20.05;50.66;96401.94;10427491;28;20334;-57
2022/05/13 08:30:32;;;;;;;3.55;1.75;;;;;;;19.39;50.75;96389.16;10412692;28;20347;-59
2022/05/13 08:35:32;;;;;;;5.95;1.55;;;;;;;21.80;48.46;96403.47;10412054;28;20188;-58
2022/05/13 08:40:55;;;;;;;3.20;1.38;;;;;;;20.95;49.52;96393.06;10443078;28;20235;-57
2022/05/13 08:45:57;;;;;;;8.93;1.75;;;;;;;18.72;55.35;96495.06;10455572;23;20240;-53
2022/05/13 08:51:12;;;;;;;2.80;1.60;;;;;;;19.28;52.23;96429.75;10434781;28;20192;-53
2022/05/13 08:56:15;;;;;;;12.15;2.17;;;;;;;20.12;51.54;96430.06;10450341;28;20251;-54
2022/05/13 09:01:25;;;;;;;3.80;1.77;;;;;;;19.56;52.17;96434.56;10434378;28;20199;-55
2022/05/13 09:06:37;;;;;;;3.63;1.85;;;;;;;20.69;49.83;96406.78;10433149;28;20203;-51
2022/05/13 09:11:48;;;;;;;5.20;2.08;;;;;;;19.27;53.39;96459.97;10432371;28;20192;-55
2022/05/13 09:17:07;;;;;;;3.45;1.90;;;;;;;20.17;52.15;96463.97;10451367;28;20235;-52
2022/05/13 09:22:11;;;;;;;4.53;2.40;;;;;;;21.09;48.91;96401.66;10451135;28;20274;-52
2022/05/13 09:27:12;;;;;;;3.70;1.85;;;;;;;20.92;49.54;96409.50;10451956;28;20239;-52
2022/05/13 09:32:25;;;;;;;9.02;2.60;;;;;;;20.01;49.54;96390.94;10451029;28;20193;-58
2022/05/13 09:37:27;;;;;;;5.75;2.25;;;;;;;17.85;55.58;96473.41;10447604;28;20587;-55
2022/05/13 09:42:35;;;;;;;9.40;2.55;;;;;;;18.44;55.63;96493.59;10450377;28;20341;-57
2022/05/13 09:47:35;;;;;;;8.98;2.60;;;;;;;20.24;50.79;96431.97;10451331;28;20326;-54
2022/05/13 09:52:36;;;;;;;6.70;2.42;;;;;;;20.93;49.89;96418.31;10451359;28;20278;-56
2022/05/13 09:57:38;;;;;;;5.50;2.03;;;;;;;20.38;48.79;96387.38;10447911;28;20294;-55
2022/05/13 10:02:40;;;;;;;3.38;2.00;;;;;;;20.01;50.85;96449.41;10448723;28;20662;-57
2022/05/13 10:07:49;;;;;;;6.65;2.25;;;;;;;20.35;48.61;96371.84;10448564;28;20212;-56
2022/05/13 10:18:27;;;;;;;4.13;1.70;;;;;;;20.91;48.53;96389.25;10448551;28;20220;-53
2022/05/13 10:23:36;;;;;;;6.30;1.80;;;;;;;22.11;45.25;96340.84;10450656;28;20572;-60
2022/05/13 10:28:46;;;;;;;8.98;2.15;;;;;;;19.58;50.63;96405.09;10450580;28;20730;-59
2022/05/13 10:34:20;;;;;;;7.07;1.92;;;;;;;21.67;48.11;96408.03;10432382;28;20224;-60
2022/05/13 10:39:24;;;;;;;3.72;1.70;;;;;;;20.67;45.62;96306.72;10432337;28;20303;-56
2022/05/13 10:44:46;;;;;;;2.95;1.40;;;;;;;21.58;43.57;96281.47;10420983;28;20240;-60
2022/05/13 10:49:47;;;;;;;1.83;1.60;;;;;;;19.67;47.60;96332.03;10420226;28;20542;-59
2022/05/13 10:55:14;;;;;;;5.18;1.88;;;;;;;21.91;44.07;96301.28;10408529;28;20213;-58
2022/05/13 11:00:18;;;;;;;6.35;1.73;;;;;;;21.37;46.96;96376.16;10390843;28;20224;-55
2022/05/13 11:05:56;;;;;;;4.82;1.70;;;;;;;22.44;45.04;96350.00;10390205;28;20589;-59
2022/05/13 11:11:19;;;;;;;3.35;1.60;;;;;;;23.86;42.84;96309.53;10408836;28;20195;-60
2022/05/13 11:16:40;;;;;;;7.97;1.70;;;;;;;23.51;41.66;96259.91;10414046;28;20200;-59
2022/05/13 11:22:23;;;;;;;8.75;1.95;;;;;;;23.00;43.72;96295.84;10452967;28;20209;-58
2022/05/13 11:27:38;;;;;;;6.47;1.55;;;;;;;22.97;42.57;96273.09;10422306;28;20207;-60
2022/05/13 11:33:04;;;;;;;5.97;1.60;;;;;;;20.13;45.76;96281.94;10456318;28;20226;-60
2022/05/13 11:38:15;;;;;;;7.32;1.67;;;;;;;20.91;46.19;96314.69;10456041;28;20266;-54
2022/05/13 11:43:54;;;;;;;4.07;1.23;;;;;;;20.49;46.54;96304.13;10455989;28;20196;-58
2022/05/13 11:49:10;;;;;;;5.72;1.50;;;;;;;22.55;44.41;96302.94;10422829;28;20204;-61
2022/05/13 11:54:22;;;;;;;8.05;1.70;;;;;;;24.23;40.61;96238.44;10437002;28;20707;-58
2022/05/13 11:59:37;;;;;;;3.42;1.17;;;;;;;25.50;39.70;96268.97;10456004;28;20212;-60
2022/05/13 12:05:08;;;;;;;6.93;1.60;;;;;;;25.81;37.45;96197.38;10455343;28;20219;-60
2022/05/13 12:10:09;;;;;;;5.13;1.50;;;;;;;25.18;38.44;96205.53;10448563;28;20200;-60
2022/05/13 12:15:35;;;;;;;5.03;1.80;;;;;;;24.68;39.43;96218.41;10452720;28;20214;-58
2022/05/13 12:20:56;;;;;;;2.00;1.10;;;;;;;25.87;37.51;96197.41;10454572;28;20228;-60
2022/05/13 12:25:59;;;;;;;9.05;1.67;;;;;;;25.46;38.94;96222.28;10452297;28;20223;-62
2022/05/13 12:31:00;;;;;;;7.13;1.80;;;;;;;26.57;36.32;96176.19;10454510;28;20220;-61
2022/05/13 12:41:58;;;;;;;4.35;1.45;;;;;;;25.27;37.89;96200.47;10438993;28;20211;-60
2022/05/13 12:47:14;;;;;;;6.47;1.50;;;;;;;24.13;41.05;96255.19;10435765;28;20231;-61
2022/05/13 12:52:27;;;;;;;6.65;1.60;;;;;;;24.68;40.51;96288.03;10453164;28;20682;-61
2022/05/13 12:57:32;;;;;;;3.95;1.42;;;;;;;24.14;42.00;96309.53;10437742;28;20223;-61
2022/05/13 13:02:34;;;;;;;4.28;1.45;;;;;;;25.60;38.72;96249.41;10433492;28;20631;-60
2022/05/13 13:07:36;;;;;;;5.53;1.60;;;;;;;26.47;36.81;96203.06;10434631;28;20223;-57
2022/05/13 13:12:40;;;;;;;4.13;1.30;;;;;;;24.57;39.73;96233.59;10452701;28;20269;-59
2022/05/13 13:18:02;;;;;;;4.60;1.33;;;;;;;25.50;39.59;96290.41;10434532;28;20317;-57
2022/05/13 13:23:05;;;;;;;5.32;1.30;;;;;;;25.51;39.07;96261.72;10434338;28;20192;-57
2022/05/13 13:28:09;;;;;;;9.65;1.60;;;;;;;26.08;39.19;96300.25;10432701;28;20261;-61
2022/05/13 13:33:10;;;;;;;2.45;1.33;;;;;;;24.62;39.39;96269.53;10433219;28;20280;-58
2022/05/13 13:38:13;;;;;;;6.82;1.52;;;;;;;25.13;39.19;96290.47;10449983;28;20693;-56
2022/05/13 13:43:18;;;;;;;9.20;1.80;;;;;;;24.21;40.50;96304.78;10451273;28;20889;-57
2022/05/13 13:48:31;;;;;;;10.55;2.10;;;;;;;23.79;40.47;96284.81;10450764;28;20220;-59
2022/05/13 13:53:34;;;;;;;9.52;1.80;;;;;;;24.60;39.02;96290.41;10450971;28;20215;-59
2022/05/13 13:58:44;;;;;;;16.00;3.65;;;;;;;25.61;37.30;96280.53;10448419;28;20577;-58
2022/05/13 14:03:46;;;;;;;8.95;1.83;;;;;;;25.12;36.17;96225.34;10450898;28;20211;-58
2022/05/13 14:08:50;;;;;;;10.23;1.55;;;;;;;26.08;35.19;96220.53;10433547;28;20188;-60
2022/05/13 14:13:52;;;;;;;8.07;1.67;;;;;;;26.92;33.98;96224.75;10432588;28;20203;-60
2022/05/13 14:19:03;;;;;;;13.38;1.70;;;;;;;26.33;34.05;96208.19;10433179;28;20760;-60
2022/05/13 14:24:06;;;;;;;11.63;2.28;;;;;;;24.67;35.95;96215.97;10431086;28;20260;-58
2022/05/13 14:29:12;;;;;;;10.63;1.77;;;;;;;25.51;35.29;96241.03;10449419;28;20239;-60
2022/05/13 14:34:20;;;;;;;12.40;2.05;;;;;;;25.19;35.27;96233.13;10449409;28;20577;-61
2022/05/13 14:44:50;;;;;;;7.35;1.48;;;;;;;24.53;37.02;96290.59;10449725;28;20239;-60
2022/05/13 14:50:17;;;;;;;7.68;1.65;;;;;;;24.56;36.17;96272.16;10437979;22;20271;-55
2022/05/13 14:55:38;;;;;;;7.13;1.80;;;;;;;25.57;35.04;96274.06;10407584;28;20271;-55
2022/05/13 15:00:44;;;;;;;4.35;1.60;;;;;;;24.27;35.83;96265.47;10414482;28;20228;-61
2022/05/13 15:05:46;;;;;;;5.93;1.40;;;;;;;26.14;33.54;96248.16;10393664;28;20205;-59
2022/05/13 15:10:46;;;;;;;6.78;1.33;;;;;;;24.98;35.73;96296.53;10414269;28;20192;-61
2022/05/13 15:15:46;;;;;;;3.67;1.60;;;;;;;24.22;35.60;96272.41;10415308;28;20581;-58
2022/05/13 15:20:47;;;;;;;6.38;1.80;;;;;;;22.14;37.43;96240.84;10400473;28;20875;-61
2022/05/13 15:25:48;;;;;;;7.68;1.63;;;;;;;24.10;35.93;96300.38;10396030;28;20768;-58
2022/05/13 15:30:49;;;;;;;7.78;1.60;;;;;;;23.20;36.22;96279.28;10378663;28;20223;-57
2022/05/13 15:35:50;;;;;;;14.77;1.63;;;;;;;24.12;35.38;96293.72;10395299;28;20224;-57
2022/05/13 15:40:50;;;;;;;8.55;1.60;;;;;;;24.22;34.71;96279.63;10368549;28;20597;-58
2022/05/13 15:45:53;;;;;;;6.47;1.40;;;;;;;24.10;35.47;96311.91;10386905;28;20332;-58
2022/05/13 15:56:18;;;;;;;10.23;1.60;;;;;;;23.13;37.05;96344.41;10372754;28;20707;-59
2022/05/13 16:01:18;;;;;;;5.53;1.30;;;;;;;21.54;39.99;96370.94;10404873;28;20671;-56
2022/05/13 16:06:18;;;;;;;3.67;1.40;;;;;;;21.59;40.19;96383.56;10414427;28;20434;-55
2022/05/13 16:11:22;;;;;;;6.05;1.80;;;;;;;21.80;39.96;96395.47;10415305;28;20243;-59
2022/05/13 16:16:28;;;;;;;5.38;1.55;;;;;;;20.12;42.28;96402.66;10396835;28;20738;-58
2022/05/13 16:21:31;;;;;;;6.03;1.38;;;;;;;19.54;42.16;96394.13;10414622;28;20284;-55
2022/05/13 16:26:34;;;;;;;5.85;1.33;;;;;;;18.66;44.62;96437.53;10396621;28;20244;-56
2022/05/13 16:31:34;;;;;;;3.65;1.42;;;;;;;18.54;46.64;96501.06;10396724;28;20250;-58
2022/05/13 16:37:41;;;;;;;4.22;1.45;;;;;;;18.96;45.62;96490.88;10413743;28;20224;-54
2022/05/13 16:41:56;;;;;;;7.53;1.58;;;;;;;18.18;44.71;96449.44;10413412;28;20196;-58
2022/05/13 16:46:56;;;;;;;8.10;1.35;;;;;;;17.85;45.93;96484.00;10413214;28;20236;-58
2022/05/13 16:51:56;;;;;;;3.72;1.27;;;;;;;17.52;46.28;96493.63;10413222;28;20547;-57
2022/05/13 16:56:57;;;;;;;7.35;1.30;;;;;;;17.09;47.75;96512.56;10412912;28;20654;-59
2022/05/13 17:01:58;;;;;;;2.25;1.20;;;;;;;16.96;47.74;96526.63;10412855;28;20678;-58
2022/05/13 17:06:58;;;;;;;2.88;1.15;;;;;;;16.22;50.34;96571.31;10411963;28;20243;-59
2022/05/13 17:17:17;;;;;;;3.90;1.30;;;;;;;16.49;49.93;96578.53;10411763;28;20223;-55
2022/05/13 17:22:18;;;;;;;3.25;1.30;;;;;;;16.41;50.17;96593.56;10411852;28;20583;-58
2022/05/13 17:27:20;;;;;;;2.35;1.05;;;;;;;16.01;49.98;96564.28;10411332;28;20244;-56
2022/05/13 17:32:21;;;;;;;2.53;1.00;;;;;;;15.79;52.01;96626.94;10411012;28;20196;-58
2022/05/13 17:37:30;;;;;;;5.03;1.63;;;;;;;15.64;51.79;96624.34;10411413;28;20227;-58
2022/05/13 17:42:30;;;;;;;6.82;1.33;;;;;;;15.79;51.23;96611.09;10394244;28;20192;-55
2022/05/13 17:47:30;;;;;;;6.40;1.60;;;;;;;15.41;52.29;96637.75;10388531;28;20240;-55
2022/05/13 17:52:31;;;;;;;6.47;1.35;;;;;;;15.46;52.74;96666.22;10378487;28;20248;-57
2022/05/13 17:57:33;;;;;;;4.22;1.30;;;;;;;15.14;54.06;96677.06;10385323;28;20323;-53
2022/05/13 18:02:33;;;;;;;22.20;12.90;;;;;;;14.92;54.92;96707.84;10373701;28;20215;-59
2022/05/13 18:07:34;;;;;;;7.20;2.10;;;;;;;14.51;56.62;96741.75;10389661;28;20626;-60
2022/05/13 18:12:34;;;;;;;2.80;1.20;;;;;;;14.11;58.08;96767.50;10398532;28;20192;-57
2022/05/13 18:17:35;;;;;;;4.50;1.70;;;;;;;14.16;58.52;96779.13;10409190;28;20588;-56
2022/05/13 18:22:36;;;;;;;6.05;2.13;;;;;;;13.51;60.85;96822.50;10397003;28;20209;-56
2022/05/13 18:27:36;;;;;;;5.10;1.13;;;;;;;13.22;61.76;96839.69;10386615;28;20302;-56
2022/05/13 18:32:36;;;;;;;7.57;2.92;;;;;;;13.01;63.39;96866.56;10425451;28;20207;-56
2022/05/13 18:37:37;;;;;;;5.20;4.00;;;;;;;12.56;66.40;96902.09;10417354;28;20315;-56
2022/05/13 18:48:05;;;;;;;5.90;1.30;;;;;;;11.35;69.98;96940.78;10415535;28;20703;-56
2022/05/13 18:53:05;;;;;;;2.65;1.17;;;;;;;11.38;70.62;96931.78;10417268;28;20199;-58
2022/05/13 18:58:05;;;;;;;3.67;1.40;;;;;;;11.33;72.07;96924.38;10416935;28;20595;-54
2022/05/13 19:03:06;;;;;;;3.47;1.30;;;;;;;10.96;73.72;96929.88;10417149;28;20748;-57
2022/05/13 19:08:06;;;;;;;2.90;1.60;;;;;;;10.86;75.63;96922.13;10416835;28;20691;-54
2022/05/13 19:13:07;;;;;;;4.87;1.60;;;;;;;10.40;77.43;96927.50;10416922;28;20695;-54
2022/05/13 19:18:07;;;;;;;4.27;1.57;;;;;;;10.13;78.98;96923.09;10415712;28;20228;-52
2022/05/13 19:23:08;;;;;;;4.77;1.30;;;;;;;10.28;79.43;96924.22;10416673;28;20220;-53
2022/05/13 19:28:11;;;;;;;5.87;2.33;;;;;;;10.00;80.60;96941.81;10416126;28;20265;-55
2022/05/13 19:33:12;;;;;;;4.57;2.10;;;;;;;9.86;81.91;96935.25;10416367;28;20303;-54
2022/05/13 19:38:13;;;;;;;6.27;1.63;;;;;;;9.76;82.85;96939.72;10415677;28;20753;-53
2022/05/13 19:43:16;;;;;;;5.77;1.70;;;;;;;9.62;83.48;96936.63;10415651;28;20276;-53
2022/05/13 19:48:16;;;;;;;3.47;1.60;;;;;;;9.70;83.94;96937.69;10415391;28;20228;-53
2022/05/13 19:53:18;;;;;;;4.97;2.10;;;;;;;9.83;84.78;96940.75;10414881;28;20675;-52
2022/05/13 19:58:20;;;;;;;5.30;1.80;;;;;;;9.33;86.44;96949.00;10414809;28;20255;-52
2022/05/13 20:03:21;;;;;;;3.47;1.97;;;;;;;9.01;88.74;96943.16;10415036;28;20200;-53
2022/05/13 20:13:40;;;;;;;6.93;1.60;;;;;;;9.19;89.87;96938.03;10414418;28;20228;-52
2022/05/13 20:18:41;;;;;;;2.83;1.70;;;;;;;9.24;89.05;96934.97;10414296;28;20765;-53
2022/05/13 20:23:42;;;;;;;1.70;1.60;;;;;;;8.83;92.31;96940.41;10414711;28;20298;-56
2022/05/13 20:28:43;;;;;;;2.37;1.60;;;;;;;8.91;92.24;96935.34;10408887;28;20216;-53
2022/05/13 20:33:44;;;;;;;5.20;1.80;;;;;;;8.98;92.17;96930.38;10407956;28;20228;-59
2022/05/13 20:38:45;;;;;;;6.03;2.10;;;;;;;9.00;91.95;96932.84;10413831;28;20252;-58
2022/05/13 20:43:45;;;;;;;5.70;1.83;;;;;;;9.00;92.83;96944.09;10413449;28;20197;-58
2022/05/13 20:48:45;;;;;;;9.03;2.10;;;;;;;8.85;93.88;96942.91;10455703;23;20251;-58
2022/05/13 20:53:46;;;;;;;4.30;2.43;;;;;;;8.84;94.65;96947.31;10454506;28;20188;-51
2022/05/13 20:58:47;;;;;;;3.80;2.27;;;;;;;8.71;96.49;96945.00;10454309;28;20226;-50
2022/05/13 21:03:52;;;;;;;3.03;1.97;;;;;;;8.77;95.03;96951.44;10453850;28;20184;-53
2022/05/13 21:08:53;;;;;;;2.37;1.93;;;;;;;8.50;97.51;96952.97;10453709;28;20208;-50
2022/05/13 21:13:53;;;;;;;5.17;2.20;;;;;;;8.37;99.42;96960.22;10453249;28;20195;-50
2022/05/13 21:18:53;;;;;;;4.87;2.07;;;;;;;8.26;100.00;96968.19;10452929;28;20314;-50
2022/05/13 21:23:55;;;;;;;2.10;1.90;;;;;;;8.18;100.00;96964.44;10453134;28;20203;-50
2022/05/13 21:28:55;;;;;;;4.03;2.40;;;;;;;8.19;100.00;96968.72;10452561;28;20204;-50
2022/05/13 21:39:15;;;;;;;4.10;2.20;;;;;;;8.08;100.00;96979.25;10447771;28;20589;-53
2022/05/13 21:44:15;;;;;;;3.67;2.13;;;;;;;8.09;100.00;96980.91;10450343;28;20192;-51
2022/05/13 21:49:15;;;;;;;3.47;1.67;;;;;;;8.16;100.00;96979.44;10447424;28;20875;-51
2022/05/13 21:54:16;;;;;;;3.97;1.87;;;;;;;8.10;100.00;96985.19;10451384;28;20900;-50
2022/05/13 21:59:17;;;;;;;3.30;2.20;;;;;;;7.96;100.00;96994.22;10451298;28;20255;-51
2022/05/13 22:04:17;;;;;;;4.73;2.17;;;;;;;7.91;100.00;97001.59;10451975;28;20210;-52
2022/05/13 22:09:18;;;;;;;3.87;1.83;;;;;;;7.89;100.00;96997.47;10451707;28;20209;-51
2022/05/13 22:14:19;;;;;;;4.70;2.10;;;;;;;7.85;100.00;97005.53;10451090;28;20195;-50
2022/05/13 22:19:21;;;;;;;5.40;2.03;;;;;;;7.74;100.00;96999.63;10453900;28;20593;-57
2022/05/13 22:24:21;;;;;;;5.80;2.07;;;;;;;7.68;100.00;96998.34;10451505;28;20565;-54
2022/05/13 22:29:22;;;;;;;3.23;2.40;;;;;;;7.67;100.00;96992.31;10451151;28;20207;-55
2022/05/13 22:34:23;;;;;;;3.30;2.30;;;;;;;7.66;100.00;96992.47;10451132;28;20279;-52
2022/05/13 22:39:23;;;;;;;5.63;2.20;;;;;;;7.49;100.00;96992.09;10451209;28;20227;-51
2022/05/13 22:44:23;;;;;;;3.77;2.30;;;;;;;7.24;100.00;96982.09;10450803;28;20261;-54
2022/05/13 22:49:24;;;;;;;2.83;2.20;;;;;;;7.13;100.00;96998.63;10451025;28;20236;-54
2022/05/13 22:54:25;;;;;;;2.73;2.20;;;;;;;7.04;100.00;96984.59;10450935;28;20215;-53
2022/05/13 22:59:25;;;;;;;4.60;2.57;;;;;;;6.93;100.00;96982.06;10450745;28;20220;-53
2022/05/13 23:04:25;;;;;;;3.37;2.30;;;;;;;6.91;100.00;96978.75;10450921;28;20188;-50
2022/05/13 23:14:45;;;;;;;5.37;3.10;;;;;;;6.73;100.00;96976.69;10457248;28;20192;-54
2022/05/13 23:19:45;;;;;;;4.63;2.43;;;;;;;6.67;100.00;96972.00;10457867;28;20698;-50
2022/05/13 23:24:45;;;;;;;6.03;3.27;;;;;;;6.66;100.00;96962.56;10457505;28;20212;-54
2022/05/13 23:29:46;;;;;;;6.33;2.50;;;;;;;6.56;100.00;96967.66;10457576;28;20234;-54
2022/05/13 23:34:47;;;;;;;3.23;2.30;;;;;;;6.49;100.00;96973.50;10457296;28;20185;-51
2022/05/13 23:39:47;;;;;;;5.23;2.70;;;;;;;6.39;100.00;96978.63;10457046;28;20227;-53
2022/05/13 23:44:48;;;;;;;5.10;2.80;;;;;;;6.45;100.00;96972.94;10457097;28;20207;-54
2022/05/13 23:49:48;;;;;;;9.37;2.70;;;;;;;6.54;100.00;96971.34;10456339;28;20240;-52
